Vidfoss — V2QK4 — position and weather

sailwx.info

Track history (hours):
 
Tides and Currents Weather Stations Pressure Air Temp Water Temp Dewpoint Dewpoint Depression Visibility Wind Speed Wind Dir Waves Ship Positions

Vidfoss

Last reported at 2016-Sep-25 12:33 UTC. Time now 2016-Sep-27 00:15 UTC.
Position N 64°60' E 011°36'.

Length 93 m; draft 5.1 m.

Type: Cargo ship. MMSI: 305846000.

Date/timePositionNaut miles runAvg speedWind from/ knotsBaromVisibWave heightAir tempDewpointWater temp
2016-Sep-25 12:33N 64°60' E 011°36'1211.8
2016-Sep-25 11:33N 64°52' E 011°16'8411.9
2016-Sep-25 04:30N 63°45' E 009°18'42 3.0
2016-Sep-24 14:33N 63°16' E 008°09'2613.0
2016-Sep-24 12:33N 63°03' E 007°20'218 8.1
2016-Sep-23 09:33N 59°34' E 005°14'3511.8
2016-Sep-23 06:33N 58°59' E 005°21'2411.9
2016-Sep-23 04:33N 58°36' E 005°32'1211.7
2016-Sep-23 03:33N 58°27' E 005°47'7 6.5
2016-Sep-23 02:33N 58°27' E 005°59'0 0.0
2016-Sep-23 01:33N 58°27' E 005°59'0 0.0
2016-Sep-23 00:33N 58°27' E 005°59'6 5.8
2016-Sep-22 23:33N 58°21' E 005°59'24512.9
2016-Sep-22 04:31N 54°17' E 005°10'1312.9
2016-Sep-22 03:33N 54°05' E 005°07'6512.4
2016-Sep-21 22:19N 53°05' E 004°28'3613.2
2016-Sep-21 19:34N 52°28' E 004°31'5 1.7
2016-Sep-21 16:33N 52°28' E 004°40'0 0.0
2016-Sep-21 09:29N 52°28' E 004°40'0 0.0
2016-Sep-21 08:19N 52°28' E 004°40'8 2.7
2016-Sep-21 05:34N 52°32' E 004°29'2211.2
2016-Sep-21 03:33N 52°54' E 004°30'33912.1
2016-Sep-19 23:26N 58°33' E 005°10'6211.6
2016-Sep-19 18:05N 59°34' E 005°14'1811.7
2016-Sep-19 16:33N 59°50' E 005°33'209 7.0
2016-Sep-18 10:34N 63°09' E 007°41'1211.6
2016-Sep-18 09:33N 63°15' E 008°04'34 3.7
2016-Sep-18 00:33N 63°31' E 009°09'2110.8
2016-Sep-17 22:34N 63°49' E 009°37'4 3.7
2016-Sep-17 21:32N 63°52' E 009°41'1111.5
2016-Sep-17 20:33N 64°03' E 009°49'16911.2
2016-Sep-17 05:33N 66°32' E 012°57'  
Track history (hours):
 
Tides and Currents Weather Stations Pressure Air Temp Water Temp Dewpoint Dewpoint Depression Visibility Wind Speed Wind Dir Waves Ship Positions

Vidfoss

Last reported at 2016-Sep-25 12:33 UTC. Time now 2016-Sep-27 00:15 UTC.
Position N 64°60' E 011°36'.

Length 93 m; draft 5.1 m.

Type: Cargo ship. MMSI: 305846000.

Date/timePositionNaut miles runAvg speedWind from/ knotsBaromVisibWave heightAir tempDewpointWater temp
2016-Sep-25 12:33N 64°60' E 011°36'1211.8
2016-Sep-25 11:33N 64°52' E 011°16'8411.9
2016-Sep-25 04:30N 63°45' E 009°18'42 3.0
2016-Sep-24 14:33N 63°16' E 008°09'2613.0
2016-Sep-24 12:33N 63°03' E 007°20'218 8.1
2016-Sep-23 09:33N 59°34' E 005°14'3511.8
2016-Sep-23 06:33N 58°59' E 005°21'2411.9
2016-Sep-23 04:33N 58°36' E 005°32'1211.7
2016-Sep-23 03:33N 58°27' E 005°47'7 6.5
2016-Sep-23 02:33N 58°27' E 005°59'0 0.0
2016-Sep-23 01:33N 58°27' E 005°59'0 0.0
2016-Sep-23 00:33N 58°27' E 005°59'6 5.8
2016-Sep-22 23:33N 58°21' E 005°59'24512.9
2016-Sep-22 04:31N 54°17' E 005°10'1312.9
2016-Sep-22 03:33N 54°05' E 005°07'6512.4
2016-Sep-21 22:19N 53°05' E 004°28'3613.2
2016-Sep-21 19:34N 52°28' E 004°31'5 1.7
2016-Sep-21 16:33N 52°28' E 004°40'0 0.0
2016-Sep-21 09:29N 52°28' E 004°40'0 0.0
2016-Sep-21 08:19N 52°28' E 004°40'8 2.7
2016-Sep-21 05:34N 52°32' E 004°29'2211.2
2016-Sep-21 03:33N 52°54' E 004°30'33912.1
2016-Sep-19 23:26N 58°33' E 005°10'6211.6
2016-Sep-19 18:05N 59°34' E 005°14'1811.7
2016-Sep-19 16:33N 59°50' E 005°33'209 7.0
2016-Sep-18 10:34N 63°09' E 007°41'1211.6
2016-Sep-18 09:33N 63°15' E 008°04'34 3.7
2016-Sep-18 00:33N 63°31' E 009°09'2110.8
2016-Sep-17 22:34N 63°49' E 009°37'4 3.7
2016-Sep-17 21:32N 63°52' E 009°41'1111.5
2016-Sep-17 20:33N 64°03' E 009°49'16911.2
2016-Sep-17 05:33N 66°32' E 012°57'  

Dump ship's entire track history